createdAt,value
2023-08-08T00:00:13.028Z,44.66
2023-08-08T00:02:44.240Z,44.89
2023-08-08T00:05:12.428Z,44.97
2023-08-08T00:07:42.568Z,44.96
2023-08-08T00:10:10.994Z,45.12
2023-08-08T00:12:44.253Z,45.19
2023-08-08T00:15:12.448Z,45.22
2023-08-08T00:17:43.536Z,45.73
2023-08-08T00:20:12.684Z,45.98
2023-08-08T00:22:44.026Z,46.29
2023-08-08T00:25:45.611Z,46.39
2023-08-08T00:28:45.291Z,46.43
2023-08-08T00:39:54.966Z,47.33
2023-08-08T00:42:55.165Z,47.09
2023-08-08T00:45:55.079Z,47.62
2023-08-08T00:51:44.647Z,47.91
2023-08-08T00:54:15.961Z,48.38
2023-08-08T00:56:55.233Z,48.65
2023-08-08T00:59:45.017Z,48.83
2023-08-08T01:02:14.896Z,48.92
2023-08-08T01:04:46.100Z,49.64
2023-08-08T01:07:45.662Z,49.64
2023-08-08T01:10:54.417Z,49.98
2023-08-08T01:13:56.486Z,50.28
2023-08-08T01:16:46.143Z,50.35
2023-08-08T01:25:17.664Z,51.02
2023-08-08T01:27:51.271Z,51.61
2023-08-08T01:30:19.758Z,51.75
2023-08-08T01:32:47.992Z,52.06
2023-08-08T01:35:15.968Z,52.71
2023-08-08T01:37:53.277Z,53.35
2023-08-08T01:40:45.677Z,54.16
2023-08-08T01:46:17.351Z,54.68
2023-08-08T01:48:49.587Z,55.26
2023-08-08T01:51:17.538Z,55.48
2023-08-08T01:53:46.393Z,55.60
2023-08-08T01:56:17.420Z,55.84
2023-08-08T02:01:19.073Z,56.32
2023-08-08T02:03:47.113Z,56.86
2023-08-08T02:06:17.957Z,57.23
2023-08-08T02:08:49.497Z,57.71
2023-08-08T02:11:17.467Z,58.40
2023-08-08T02:13:47.894Z,58.58
2023-08-08T02:16:18.985Z,58.99
2023-08-08T02:18:46.957Z,59.23
2023-08-08T02:21:17.064Z,60.16
2023-08-08T02:23:48.316Z,60.53
2023-08-08T02:26:19.562Z,60.96
2023-08-08T02:28:47.644Z,61.30
2023-08-08T02:34:18.576Z,62.08
2023-08-08T02:36:49.474Z,62.60
2023-08-08T02:39:17.795Z,63.03
2023-08-08T02:41:48.804Z,63.16
2023-08-08T02:44:17.168Z,63.78
2023-08-08T02:49:19.896Z,64.42
2023-08-08T02:51:48.077Z,65.13
2023-08-08T02:54:19.434Z,65.21
2023-08-08T02:56:50.417Z,65.69
2023-08-08T02:59:18.800Z,66.08
2023-08-08T03:01:49.827Z,66.85
2023-08-08T03:04:20.998Z,67.28
2023-08-08T03:06:48.990Z,67.92
2023-08-08T03:09:19.035Z,68.52
2023-08-08T03:14:19.936Z,69.94
2023-08-08T03:16:51.120Z,69.67
2023-08-08T03:19:19.192Z,70.23
2023-08-08T03:21:50.492Z,70.63
2023-08-08T03:24:19.466Z,71.35
2023-08-08T03:26:51.007Z,71.87
2023-08-08T03:29:19.376Z,72.21
2023-08-08T03:31:50.165Z,72.69
2023-08-08T03:34:19.482Z,72.83
2023-08-08T03:36:50.570Z,73.12
2023-08-08T03:39:18.601Z,73.42
2023-08-08T03:41:46.637Z,74.09
2023-08-08T03:44:14.717Z,73.79
2023-08-08T03:46:42.700Z,74.52
2023-08-08T03:49:16.249Z,74.62
2023-08-08T03:54:56.432Z,75.04
2023-08-08T03:57:24.449Z,75.47
2023-08-08T03:59:52.571Z,75.11
2023-08-08T04:02:20.544Z,75.93
2023-08-08T04:04:50.821Z,75.79
2023-08-08T04:07:21.758Z,75.73
2023-08-08T04:09:50.933Z,75.80
2023-08-08T04:12:18.899Z,76.05
2023-08-08T04:14:52.956Z,76.13
2023-08-08T04:17:21.122Z,76.50
2023-08-08T04:19:52.966Z,75.25
2023-08-08T04:22:20.879Z,77.02
2023-08-08T04:24:51.941Z,76.80
2023-08-08T04:27:21.429Z,76.44
2023-08-08T04:29:52.524Z,76.57
2023-08-08T04:32:21.894Z,76.40
2023-08-08T04:34:53.173Z,76.40
2023-08-08T04:37:21.226Z,76.45
2023-08-08T04:39:51.947Z,76.66
2023-08-08T04:42:21.701Z,77.31
2023-08-08T04:47:23.505Z,77.33
2023-08-08T04:49:51.597Z,77.49
2023-08-08T04:52:25.019Z,77.35
2023-08-08T04:54:59.468Z,77.80
2023-08-08T05:03:53.005Z,78.37
2023-08-08T05:06:21.890Z,78.25
2023-08-08T05:12:04.350Z,77.99
2023-08-08T05:14:22.512Z,77.55
2023-08-08T05:16:53.365Z,77.49
2023-08-08T05:19:23.740Z,77.56
2023-08-08T05:21:52.728Z,78.10
2023-08-08T05:24:23.209Z,78.57
2023-08-08T05:26:51.385Z,78.09
2023-08-08T05:29:19.345Z,78.40
2023-08-08T05:31:53.983Z,78.39
2023-08-08T05:34:22.375Z,78.37
2023-08-08T05:36:56.191Z,79.22
2023-08-08T05:39:52.557Z,79.55
2023-08-08T05:42:24.965Z,79.58
2023-08-08T05:44:52.952Z,79.72
2023-08-08T05:47:24.654Z,80.22
2023-08-08T05:49:52.712Z,80.18
2023-08-08T05:52:24.604Z,80.16
2023-08-08T05:54:58.403Z,80.54
2023-08-08T05:57:26.369Z,79.96
2023-08-08T05:59:54.757Z,80.48
2023-08-08T06:02:22.837Z,80.31
2023-08-08T06:04:53.730Z,80.65
2023-08-08T06:07:23.443Z,80.47
2023-08-08T06:09:51.647Z,80.44
2023-08-08T06:12:23.429Z,80.23
2023-08-08T06:14:54.458Z,80.33
2023-08-08T06:17:25.539Z,80.01
2023-08-08T06:19:53.731Z,80.14
2023-08-08T06:22:24.465Z,80.26
2023-08-08T06:24:59.640Z,79.72
2023-08-08T06:27:27.592Z,80.41
2023-08-08T06:29:55.652Z,80.26
2023-08-08T06:32:23.762Z,80.41
2023-08-08T06:35:23.630Z,80.15
2023-08-08T06:49:24.566Z,79.74
2023-08-08T06:52:26.007Z,79.82
2023-08-08T07:00:54.908Z,80.66
2023-08-08T07:03:28.464Z,79.93
2023-08-08T07:06:24.055Z,80.13
2023-08-08T07:11:54.472Z,79.70
2023-08-08T07:14:26.489Z,80.30
2023-08-08T07:23:03.438Z,80.63
2023-08-08T07:25:31.408Z,80.41
2023-08-08T07:28:25.096Z,79.97
2023-08-08T07:31:24.772Z,80.45
2023-08-08T07:34:28.719Z,80.48
2023-08-08T07:37:24.667Z,80.50
2023-08-08T07:42:26.392Z,80.67
2023-08-08T07:44:55.817Z,80.89
2023-08-08T07:47:25.441Z,81.50
2023-08-08T07:56:10.793Z,81.29
2023-08-08T08:05:25.504Z,81.72
2023-08-08T08:10:37.257Z,81.75
2023-08-08T08:13:24.995Z,81.77
2023-08-08T08:15:56.525Z,81.38
2023-08-08T08:18:27.570Z,81.57
2023-08-08T08:20:55.688Z,81.40
2023-08-08T08:23:26.846Z,81.30
2023-08-08T08:31:25.738Z,80.22
2023-08-08T08:34:25.244Z,80.61
2023-08-08T08:42:31.566Z,80.67
2023-08-08T08:45:34.303Z,80.17
2023-08-08T08:48:26.944Z,80.45
2023-08-08T08:50:57.853Z,80.97
2023-08-08T08:53:28.452Z,81.16
2023-08-08T08:58:55.692Z,81.44
2023-08-08T09:04:25.361Z,82.01
2023-08-08T09:07:03.531Z,81.87
2023-08-08T09:09:34.097Z,81.91
2023-08-08T09:14:57.318Z,81.20
2023-08-08T09:17:46.211Z,81.24
2023-08-08T09:20:32.353Z,80.37
2023-08-08T09:30:56.047Z,79.94
2023-08-08T09:33:30.411Z,80.00
2023-08-08T09:35:58.406Z,79.94
2023-08-08T09:38:26.417Z,79.98
2023-08-08T09:40:57.533Z,79.30
2023-08-08T09:43:27.218Z,80.00
2023-08-08T09:45:56.459Z,80.02
2023-08-08T09:48:34.411Z,80.11
2023-08-08T09:51:26.333Z,79.86
2023-08-08T09:53:58.314Z,79.95
2023-08-08T09:57:02.261Z,79.91
2023-08-08T09:59:30.742Z,79.11
2023-08-08T10:01:59.517Z,79.34
2023-08-08T10:06:56.448Z,78.91
2023-08-08T10:09:27.237Z,79.14
2023-08-08T10:11:55.803Z,79.94
2023-08-08T10:14:32.604Z,79.79
2023-08-08T10:17:01.137Z,79.54
2023-08-08T10:19:29.172Z,79.20
2023-08-08T10:22:01.490Z,78.80
2023-08-08T10:24:34.992Z,79.24
2023-08-08T10:30:03.223Z,79.90
2023-08-08T10:32:31.343Z,79.83
2023-08-08T10:37:57.025Z,79.69
2023-08-08T10:40:34.453Z,80.00
2023-08-08T10:43:27.957Z,79.50
2023-08-08T10:46:07.654Z,79.62
2023-08-08T10:52:06.507Z,79.54
2023-08-08T10:54:35.874Z,79.72
2023-08-08T10:59:57.568Z,79.28
2023-08-08T11:02:28.660Z,79.50
2023-08-08T11:04:56.951Z,79.47
2023-08-08T11:09:59.971Z,79.29
2023-08-08T11:12:28.721Z,79.00
2023-08-08T11:14:59.698Z,79.48
2023-08-08T11:17:27.774Z,78.93
2023-08-08T11:19:58.902Z,78.96
2023-08-08T11:22:27.909Z,79.21
2023-08-08T11:25:05.038Z,78.69
2023-08-08T11:38:27.940Z,79.11
2023-08-08T11:40:57.643Z,78.79
2023-08-08T11:43:27.725Z,79.29
2023-08-08T11:45:58.759Z,79.01
2023-08-08T11:48:27.632Z,78.97
2023-08-08T11:50:55.666Z,78.75
2023-08-08T11:53:29.653Z,79.16
2023-08-08T11:55:59.425Z,79.01
2023-08-08T11:58:32.639Z,79.73
2023-08-08T12:01:40.875Z,78.64
2023-08-08T12:04:29.670Z,78.02
2023-08-08T12:10:01.387Z,78.65
2023-08-08T12:12:39.447Z,78.93
2023-08-08T12:15:40.266Z,79.02
2023-08-08T12:18:56.985Z,79.62
2023-08-08T12:21:28.322Z,80.24
2023-08-08T12:29:28.141Z,81.97
2023-08-08T12:31:59.575Z,83.68
2023-08-08T12:34:29.125Z,85.08
2023-08-08T12:36:59.832Z,85.79
2023-08-08T12:39:28.454Z,86.11
2023-08-08T12:44:31.690Z,88.00
2023-08-08T12:47:00.335Z,87.69
2023-08-08T12:49:38.506Z,89.86
2023-08-08T12:52:30.699Z,90.84
2023-08-08T12:54:59.947Z,91.63
2023-08-08T12:57:42.313Z,92.57
2023-08-08T13:00:42.233Z,93.15
2023-08-08T13:08:58.035Z,93.21
2023-08-08T13:11:29.403Z,92.76
2023-08-08T13:14:03.626Z,92.93
2023-08-08T13:17:04.105Z,92.67
2023-08-08T13:22:33.215Z,93.64
2023-08-08T13:25:06.616Z,94.42
2023-08-08T13:30:59.182Z,95.22
2023-08-08T13:33:33.439Z,95.86
2023-08-08T13:42:58.238Z,96.33
2023-08-08T13:48:24.700Z,96.05
2023-08-08T13:51:00.633Z,96.67
2023-08-08T15:53:33.592Z,99.89
2023-08-08T15:59:25.957Z,100.00
2023-08-08T16:13:28.891Z,100.00
2023-08-08T16:19:33.335Z,100.00
2023-08-08T16:25:33.590Z,100.00
2023-08-08T16:26:38.363Z,100.00
2023-08-08T16:28:30.745Z,100.00
2023-08-08T16:31:34.693Z,100.00
2023-08-08T16:34:36.047Z,100.00
2023-08-08T16:37:04.088Z,100.00
2023-08-08T16:39:32.096Z,100.00
2023-08-08T16:45:31.253Z,100.00
2023-08-08T16:47:59.706Z,99.79
2023-08-08T16:53:28.758Z,99.21
2023-08-08T17:00:35.653Z,99.47
2023-08-08T19:07:50.384Z,88.89
2023-08-08T19:10:35.873Z,90.83
2023-08-08T19:18:55.678Z,87.94
2023-08-08T19:22:39.261Z,87.60
2023-08-08T19:24:37.561Z,86.00
2023-08-08T19:27:31.471Z,86.25
2023-08-08T20:10:12.600Z,81.81
2023-08-08T20:14:02.176Z,80.79
2023-08-08T20:21:03.513Z,78.30
2023-08-08T20:43:29.660Z,75.42
2023-08-08T20:46:02.532Z,77.50
2023-08-08T21:01:33.933Z,76.65
2023-08-08T21:14:02.732Z,76.33
2023-08-08T21:20:03.210Z,76.30
2023-08-08T21:23:04.852Z,75.00
2023-08-08T21:26:01.749Z,77.36
2023-08-08T21:29:04.981Z,77.90
2023-08-08T21:34:14.293Z,77.73
2023-08-08T21:37:04.204Z,80.23
2023-08-08T21:39:32.509Z,81.06
2023-08-08T21:42:06.762Z,80.46
2023-08-08T21:47:34.859Z,81.30
2023-08-08T21:50:09.139Z,80.14
2023-08-08T21:53:03.373Z,81.08
2023-08-08T21:55:36.391Z,80.87
2023-08-08T22:11:01.932Z,81.44
2023-08-08T22:20:37.439Z,80.84
2023-08-08T22:27:12.380Z,79.84
2023-08-08T22:32:04.519Z,79.90
2023-08-08T22:34:32.915Z,81.18
2023-08-08T22:39:31.710Z,81.84
2023-08-08T22:42:12.201Z,80.95
2023-08-08T22:45:37.254Z,82.69
2023-08-08T22:48:13.027Z,83.38
2023-08-08T22:51:07.401Z,82.62
2023-08-08T22:57:17.900Z,81.80
2023-08-08T23:00:18.231Z,81.04
2023-08-08T23:07:08.091Z,79.63
2023-08-08T23:11:40.994Z,79.50
2023-08-08T23:31:42.771Z,76.14
2023-08-08T23:35:37.724Z,76.12
2023-08-08T23:45:37.698Z,75.14
2023-08-08T23:48:34.955Z,75.04
2023-08-08T23:51:03.056Z,74.73
2023-08-08T23:53:35.409Z,75.93
2023-08-08T23:56:37.542Z,76.18
2023-08-08T23:59:42.694Z,76.34
